Time;durP1;ratioP1;P1;durP2;ratioP2;P2;SDS_P1;SDS_P2;PMS_P1;PMS_P2;Temp;Humidity;BMP_temperature;BMP_pressure;BME280_temperature;BME280_humidity;BME280_pressure;Samples;Min_cycle;Max_cycle;Signal;HPM_P1;HPM_P2
2021/12/22 08:48:01;;;;;;;;;;;;;;;-1.38;70.02;100980.00;5088637;23;1501;-68
2021/12/22 08:50:27;;;;;;;;;;;;;;;-1.46;69.66;100971.41;4992985;28;1950;-66
2021/12/22 08:52:55;;;;;;;;;;;;;;;-1.40;71.39;100969.44;4975710;28;1210;-59
2021/12/22 08:55:21;;;;;;;;;;;;;;;-1.26;71.18;100972.19;4993307;28;830;-61
2021/12/22 08:57:48;;;;;;;;;;;;;;;-1.19;70.54;100974.56;4993126;28;901;-61
2021/12/22 09:00:14;;;;;;;;;;;;;;;-1.17;69.86;100965.03;4993413;28;820;-52
2021/12/22 09:02:40;;;;;;;;;;;;;;;-1.16;69.61;100966.63;4993033;28;832;-57
2021/12/22 09:05:06;;;;;;;;;;;;;;;-1.14;69.22;100961.72;4993014;28;917;-57
2021/12/22 09:07:32;;;;;;;;;;;;;;;-1.13;68.66;100960.63;4993016;28;839;-57
2021/12/22 09:09:58;;;;;;;;;;;;;;;-1.08;68.10;100957.81;4993013;28;1882;-52
2021/12/22 09:12:26;;;;;;;;;;;;;;;-0.99;68.72;100959.88;4993113;28;798;-54
2021/12/22 09:14:52;;;;;;;;;;;;;;;-0.95;67.17;100958.97;4992705;28;941;-52
2021/12/22 09:17:18;;;;;;;;;;;;;;;-0.83;68.20;100956.59;4992976;28;891;-55
2021/12/22 09:19:44;;;;;;;;;;;;;;;-0.78;67.94;100947.56;4993039;28;811;-54
2021/12/22 09:22:09;;;;;;;;;;;;;;;-0.57;68.36;100953.44;4992717;28;839;-54
2021/12/22 09:24:35;;;;;;;;;;;;;;;-0.40;68.22;100944.72;4975113;28;1605;-54
2021/12/22 09:27:00;;;;;;;;;;;;;;;-0.34;65.60;100943.50;4992622;28;815;-55
2021/12/22 09:29:29;;;;;;;;;;;;;;;-0.32;67.49;100943.19;4992755;28;1951;-65
2021/12/22 09:31:56;;;;;;;;;;;;;;;-0.37;65.60;100944.09;4992431;28;866;-61
2021/12/22 09:34:23;;;;;;;;;;;;;;;-0.55;64.92;100939.56;4992472;28;901;-63
2021/12/22 09:36:50;;;;;;;;;;;;;;;-0.45;64.12;100936.63;4992425;28;882;-63
2021/12/22 09:39:17;;;;;;;;;;;;;;;-0.32;61.64;100932.31;4992418;28;859;-63
2021/12/22 09:41:43;;;;;;;;;;;;;;;-0.34;59.39;100927.22;4992417;28;847;-63
2021/12/22 09:44:09;;;;;;;;;;;;;;;-0.33;59.78;100931.53;4992368;28;886;-64
2021/12/22 09:46:39;;;;;;;;;;;;;;;-0.43;58.91;100923.56;4974960;28;1006;-64
2021/12/22 09:49:19;;;;;;;;;;;;;;;-0.79;58.83;100926.13;4991986;28;1982;-63
2021/12/22 09:54:31;;;;;;;;;;;;;;;-0.98;59.75;100918.88;4992178;28;661;-64
2021/12/22 09:56:58;;;;;;;;;;;;;;;-0.49;60.57;100916.63;4992323;28;807;-65
2021/12/22 09:59:26;;;;;;;;;;;;;;;-0.20;59.47;100916.31;4992187;28;835;-65
2021/12/22 10:01:52;;;;;;;;;;;;;;;-0.04;58.22;100909.47;4974634;28;1276;-65
2021/12/22 10:04:19;;;;;;;;;;;;;;;-0.09;56.59;100903.34;4992173;28;827;-64
2021/12/22 10:06:46;;;;;;;;;;;;;;;-0.15;57.22;100907.25;4992318;28;926;-64
2021/12/22 10:09:13;;;;;;;;;;;;;;;-0.26;57.08;100902.03;4991990;28;1891;-65
2021/12/22 10:11:44;;;;;;;;;;;;;;;-0.13;58.42;100897.69;4992127;28;843;-66
2021/12/22 10:14:27;;;;;;;;;;;;;;;0.14;58.50;100899.56;4991991;28;894;-65
2021/12/22 10:16:54;;;;;;;;;;;;;;;0.28;57.97;100893.28;4991941;28;819;-64
2021/12/22 10:19:24;;;;;;;;;;;;;;;0.39;58.21;100897.41;4992041;28;815;-65
2021/12/22 10:21:51;;;;;;;;;;;;;;;0.56;56.35;100885.88;4991987;28;803;-65
2021/12/22 10:24:17;;;;;;;;;;;;;;;0.53;52.83;100889.19;4991856;28;855;-65
2021/12/22 10:26:44;;;;;;;;;;;;;;;0.44;53.22;100889.13;4991940;28;854;-65
2021/12/22 10:29:10;;;;;;;;;;;;;;;0.47;53.58;100882.25;4991851;28;1878;-66
2021/12/22 10:31:39;;;;;;;;;;;;;;;0.47;52.02;100890.41;4974406;28;1345;-67
2021/12/22 10:34:09;;;;;;;;;;;;;;;0.47;52.78;100888.53;4991898;28;851;-67
2021/12/22 10:36:46;;;;;;;;;;;;;;;0.53;53.52;100884.53;4991869;28;898;-65
2021/12/22 10:39:31;;;;;;;;;;;;;;;0.51;52.48;100885.97;4992025;28;795;-67
2021/12/22 10:42:03;;;;;;;;;;;;;;;0.40;53.13;100886.19;4975969;28;831;-68
2021/12/22 10:44:41;;;;;;;;;;;;;;;0.49;52.66;100883.56;4995671;28;819;-66
2021/12/22 10:47:14;;;;;;;;;;;;;;;0.50;51.24;100879.72;4995672;28;1512;-66
2021/12/22 10:49:41;;;;;;;;;;;;;;;0.56;50.81;100881.22;4995519;28;1914;-67
2021/12/22 10:52:07;;;;;;;;;;;;;;;0.58;50.18;100870.84;4996126;28;759;-67
2021/12/22 10:54:35;;;;;;;;;;;;;;;0.68;51.27;100868.97;4995401;28;831;-68
2021/12/22 10:57:02;;;;;;;;;;;;;;;0.87;52.75;100866.06;4995991;28;755;-67
2021/12/22 10:59:39;;;;;;;;;;;;;;;0.93;52.00;100856.66;4995620;28;826;-68
2021/12/22 11:02:07;;;;;;;;;;;;;;;0.96;49.96;100856.00;4995225;28;850;-68
2021/12/22 11:04:35;;;;;;;;;;;;;;;0.92;48.63;100858.56;4977796;28;903;-68
2021/12/22 11:07:12;;;;;;;;;;;;;;;0.91;48.33;100862.41;4977676;28;1189;-68
2021/12/22 11:09:39;;;;;;;;;;;;;;;0.97;48.92;100855.72;4977811;28;1977;-68
2021/12/22 11:12:06;;;;;;;;;;;;;;;1.25;47.38;100854.72;4978333;28;1268;-67
2021/12/22 11:14:38;;;;;;;;;;;;;;;1.42;47.30;100854.78;4977841;28;1373;-67
2021/12/22 11:17:10;;;;;;;;;;;;;;;1.27;46.94;100847.06;4977557;28;1305;-67
2021/12/22 11:19:38;;;;;;;;;;;;;;;0.92;49.50;100847.69;4994892;28;870;-69
2021/12/22 11:24:41;;;;;;;;;;;;;;;1.49;50.45;100841.50;4994799;28;740;-68
2021/12/22 11:27:08;;;;;;;;;;;;;;;1.65;48.72;100838.38;4995110;28;882;-69
2021/12/22 11:29:35;;;;;;;;;;;;;;;1.86;48.92;100844.00;4995039;28;1949;-69
2021/12/22 11:32:03;;;;;;;;;;;;;;;2.00;47.56;100844.66;4995490;28;846;-68
2021/12/22 11:34:34;;;;;;;;;;;;;;;2.05;50.18;100844.53;4994903;28;839;-69
2021/12/22 11:37:01;;;;;;;;;;;;;;;1.80;48.02;100835.19;4994599;28;827;-70
2021/12/22 11:39:29;;;;;;;;;;;;;;;1.39;48.07;100829.00;4977125;28;1292;-69
2021/12/22 11:41:58;;;;;;;;;;;;;;;1.04;46.80;100827.22;4994478;28;862;-69
2021/12/22 11:44:28;;;;;;;;;;;;;;;0.78;50.84;100828.69;4976943;28;1138;-69
2021/12/22 11:46:57;;;;;;;;;;;;;;;0.63;49.49;100833.72;4994676;28;941;-68
2021/12/22 11:49:23;;;;;;;;;;;;;;;0.54;49.93;100834.47;4994092;28;1973;-68
2021/12/22 11:51:50;;;;;;;;;;;;;;;0.83;49.51;100833.19;4994269;28;896;-68
2021/12/22 11:54:24;;;;;;;;;;;;;;;1.37;48.18;100827.72;4994254;28;823;-68
2021/12/22 11:56:52;;;;;;;;;;;;;;;1.37;47.53;100825.78;4994294;28;819;-68
2021/12/22 11:59:24;;;;;;;;;;;;;;;1.03;51.87;100826.44;4994124;28;796;-69
2021/12/22 12:02:09;;;;;;;;;;;;;;;1.22;53.00;100823.47;4994161;28;1016;-68
2021/12/22 12:04:36;;;;;;;;;;;;;;;1.18;52.17;100827.94;4994435;28;854;-68
2021/12/22 12:07:03;;;;;;;;;;;;;;;0.94;50.05;100825.56;4994218;28;839;-69
2021/12/22 12:09:30;;;;;;;;;;;;;;;1.00;51.52;100821.59;4994489;28;1945;-69
2021/12/22 12:11:58;;;;;;;;;;;;;;;1.17;51.65;100823.59;4994239;28;858;-69
2021/12/22 12:23:27;;;;;;;;;;;;;;;1.73;47.58;100810.31;4993831;28;685;-67
2021/12/22 12:25:54;;;;;;;;;;;;;;;2.16;48.00;100806.84;4993657;28;843;-69
2021/12/22 12:28:22;;;;;;;;;;;;;;;2.37;45.49;100804.22;4994021;28;853;-69
2021/12/22 12:30:56;;;;;;;;;;;;;;;2.45;46.46;100803.44;4993500;28;1890;-68
2021/12/22 12:33:26;;;;;;;;;;;;;;;2.21;47.81;100804.72;4993882;28;807;-69
2021/12/22 12:35:57;;;;;;;;;;;;;;;1.95;49.85;100802.00;4976012;28;1349;-70
2021/12/22 12:38:27;;;;;;;;;;;;;;;1.78;52.58;100802.78;4993486;28;878;-70
2021/12/22 12:41:05;;;;;;;;;;;;;;;1.60;51.82;100804.69;4993424;28;890;-70
2021/12/22 12:43:42;;;;;;;;;;;;;;;1.33;52.04;100805.72;4993401;28;1049;-70
2021/12/22 12:46:24;;;;;;;;;;;;;;;1.13;53.38;100806.28;4993257;28;874;-70
2021/12/22 12:48:53;;;;;;;;;;;;;;;0.95;55.41;100800.78;4993097;28;1444;-70
2021/12/22 12:51:21;;;;;;;;;;;;;;;0.88;56.70;100803.16;4993116;28;1914;-69
2021/12/22 12:53:49;;;;;;;;;;;;;;;1.04;56.26;100803.53;4993449;28;1015;-70
2021/12/22 12:56:17;;;;;;;;;;;;;;;1.11;55.61;100803.91;4993158;28;866;-70
2021/12/22 12:59:01;;;;;;;;;;;;;;;1.06;54.31;100801.28;4975746;28;1288;-69
2021/12/22 13:01:51;;;;;;;;;;;;;;;0.74;55.67;100795.06;4992987;28;889;-70
2021/12/22 13:04:23;;;;;;;;;;;;;;;0.44;56.97;100793.91;4992803;28;877;-70
2021/12/22 13:07:08;;;;;;;;;;;;;;;0.38;54.93;100792.44;4975458;28;867;-69
2021/12/22 13:09:37;;;;;;;;;;;;;;;0.51;53.53;100797.03;4992811;28;1945;-70
2021/12/22 13:17:49;;;;;;;;;;;;;;;0.32;54.36;100793.66;4993138;28;677;-69
2021/12/22 13:20:17;;;;;;;;;;;;;;;0.49;56.30;100793.81;4992593;28;790;-69
2021/12/22 13:22:50;;;;;;;;;;;;;;;0.46;58.36;100794.41;4992682;28;827;-70
2021/12/22 13:25:21;;;;;;;;;;;;;;;0.39;58.31;100791.34;4992638;28;906;-70
2021/12/22 13:28:00;;;;;;;;;;;;;;;0.54;59.32;100787.44;4992581;28;803;-69
2021/12/22 13:30:31;;;;;;;;;;;;;;;0.96;55.20;100791.50;4974986;28;1879;-69
2021/12/22 13:33:09;;;;;;;;;;;;;;;0.99;55.78;100790.88;4992545;28;795;-70
2021/12/22 13:35:36;;;;;;;;;;;;;;;1.05;56.84;100785.28;4992708;28;784;-71
2021/12/22 13:38:05;;;;;;;;;;;;;;;0.93;57.19;100783.94;4975243;28;835;-67
2021/12/22 13:40:34;;;;;;;;;;;;;;;0.63;57.26;100787.47;4975099;28;872;-70
2021/12/22 13:43:01;;;;;;;;;;;;;;;0.24;56.20;100783.56;4992366;28;819;-70
2021/12/22 13:45:28;;;;;;;;;;;;;;;-0.10;56.42;100793.03;4992375;28;1113;-68
2021/12/22 13:47:55;;;;;;;;;;;;;;;-0.37;58.11;100791.97;4974909;28;814;-68
2021/12/22 13:50:22;;;;;;;;;;;;;;;-0.59;61.99;100792.72;4991893;28;1909;-68
2021/12/22 13:52:48;;;;;;;;;;;;;;;-0.80;64.28;100789.59;4992246;28;811;-70
2021/12/22 13:55:15;;;;;;;;;;;;;;;-0.99;64.46;100789.69;4992204;28;877;-68
2021/12/22 13:57:42;;;;;;;;;;;;;;;-1.17;64.74;100794.09;4974734;28;1166;-68
2021/12/22 14:00:09;;;;;;;;;;;;;;;-1.33;67.04;100800.91;4992305;28;867;-68
2021/12/22 14:02:36;;;;;;;;;;;;;;;-1.42;69.34;100795.34;4992088;28;870;-68
2021/12/22 14:05:15;;;;;;;;;;;;;;;-1.51;70.72;100791.72;4974655;28;812;-68
2021/12/22 14:07:42;;;;;;;;;;;;;;;-1.61;71.11;100797.31;4992109;28;843;-68
2021/12/22 14:10:11;;;;;;;;;;;;;;;-1.71;72.43;100792.84;4991995;28;1938;-68
2021/12/22 14:12:40;;;;;;;;;;;;;;;-1.82;73.50;100794.91;4974667;28;1092;-68
2021/12/22 14:15:08;;;;;;;;;;;;;;;-1.90;73.88;100801.00;4974601;28;1460;-68
2021/12/22 14:17:37;;;;;;;;;;;;;;;-1.99;74.29;100794.63;4994967;28;763;-68
2021/12/22 14:20:08;;;;;;;;;;;;;;;-2.20;75.31;100799.53;4996020;28;847;-68
2021/12/22 14:22:35;;;;;;;;;;;;;;;-2.50;76.86;100802.38;4996071;28;869;-68
2021/12/22 14:25:07;;;;;;;;;;;;;;;-2.70;77.46;100808.03;4996013;28;811;-68
2021/12/22 14:27:45;;;;;;;;;;;;;;;-2.89;77.62;100811.47;4978415;28;1075;-69
2021/12/22 14:30:25;;;;;;;;;;;;;;;-3.03;78.21;100807.03;4978844;28;1886;-67
2021/12/22 14:32:54;;;;;;;;;;;;;;;-3.14;77.43;100806.34;4995811;28;866;-68
2021/12/22 14:35:21;;;;;;;;;;;;;;;-3.20;77.17;100808.31;4995795;28;854;-68
2021/12/22 14:37:55;;;;;;;;;;;;;;;-3.23;76.14;100797.25;4978244;28;843;-68
2021/12/22 14:40:23;;;;;;;;;;;;;;;-3.29;76.64;100810.00;4996129;28;874;-68
2021/12/22 14:42:56;;;;;;;;;;;;;;;-3.42;76.17;100803.34;4995887;28;811;-68
2021/12/22 14:45:28;;;;;;;;;;;;;;;-3.51;73.50;100805.88;4995569;28;925;-69
2021/12/22 14:48:04;;;;;;;;;;;;;;;-3.58;73.57;100804.59;4995431;28;815;-68
2021/12/22 14:50:31;;;;;;;;;;;;;;;-3.64;73.16;100814.63;4995360;28;1989;-68
2021/12/22 14:53:17;;;;;;;;;;;;;;;-3.64;72.22;100811.13;4995666;28;859;-68
2021/12/22 14:55:47;;;;;;;;;;;;;;;-3.67;71.55;100809.78;4994193;28;1197;-67
2021/12/22 14:58:15;;;;;;;;;;;;;;;-3.71;71.34;100814.16;4995411;28;851;-67
2021/12/22 15:00:44;;;;;;;;;;;;;;;-3.74;70.87;100812.00;4977805;28;1185;-68
2021/12/22 15:03:11;;;;;;;;;;;;;;;-3.76;70.38;100811.47;4977768;28;1244;-68
2021/12/22 15:05:37;;;;;;;;;;;;;;;-3.78;70.57;100810.94;4995221;28;843;-68
2021/12/22 15:08:05;;;;;;;;;;;;;;;-3.85;71.03;100813.16;4995136;28;855;-68
2021/12/22 15:10:31;;;;;;;;;;;;;;;-3.90;70.81;100809.41;4995023;28;1939;-67
2021/12/22 15:12:59;;;;;;;;;;;;;;;-3.97;71.49;100800.84;4995416;28;866;-68
2021/12/22 15:15:26;;;;;;;;;;;;;;;-3.95;70.76;100814.03;4995028;28;850;-67
2021/12/22 15:17:54;;;;;;;;;;;;;;;-3.95;70.40;100808.63;4994981;28;799;-67
2021/12/22 15:20:21;;;;;;;;;;;;;;;-3.95;70.07;100798.66;4977776;28;1181;-67
2021/12/22 15:22:48;;;;;;;;;;;;;;;-3.92;69.26;100813.50;4994818;28;925;-67
2021/12/22 15:25:15;;;;;;;;;;;;;;;-3.90;68.76;100816.72;4995165;28;815;-67
2021/12/22 15:27:42;;;;;;;;;;;;;;;-3.88;68.96;100809.16;4994440;28;859;-67
2021/12/22 15:30:09;;;;;;;;;;;;;;;-3.86;68.25;100812.38;4994723;28;1955;-67
2021/12/22 15:32:36;;;;;;;;;;;;;;;-3.78;67.66;100817.16;4994670;28;1062;-67
2021/12/22 15:35:03;;;;;;;;;;;;;;;-3.68;66.22;100818.19;4977228;28;1083;-67
2021/12/22 15:37:31;;;;;;;;;;;;;;;-3.58;66.69;100812.72;4994583;28;865;-68
2021/12/22 15:39:58;;;;;;;;;;;;;;;-3.61;66.84;100810.53;4994673;28;850;-68
2021/12/22 15:42:25;;;;;;;;;;;;;;;-3.70;68.13;100815.75;4994590;28;784;-68
2021/12/22 15:44:51;;;;;;;;;;;;;;;-3.72;68.93;100824.13;4994462;28;883;-67
2021/12/22 15:47:18;;;;;;;;;;;;;;;-3.73;68.31;100824.44;4994822;28;930;-67
2021/12/22 15:49:43;;;;;;;;;;;;;;;-3.68;67.37;100824.38;4994307;28;1907;-68
2021/12/22 15:52:10;;;;;;;;;;;;;;;-3.62;66.17;100825.97;4994568;28;823;-67
2021/12/22 15:54:38;;;;;;;;;;;;;;;-3.59;66.35;100827.28;4994411;28;832;-68
2021/12/22 15:57:05;;;;;;;;;;;;;;;-3.62;65.85;100831.38;4994261;28;855;-68
2021/12/22 15:59:31;;;;;;;;;;;;;;;-3.68;66.50;100834.41;4994207;28;838;-67
2021/12/22 16:01:58;;;;;;;;;;;;;;;-3.73;66.63;100838.75;4994174;28;855;-67
2021/12/22 16:04:25;;;;;;;;;;;;;;;-3.81;67.37;100838.53;4994130;28;779;-67
2021/12/22 16:06:52;;;;;;;;;;;;;;;-3.93;68.65;100828.88;4976738;28;1615;-67
2021/12/22 16:09:20;;;;;;;;;;;;;;;-4.02;69.09;100841.34;4993939;28;1960;-67
2021/12/22 16:11:47;;;;;;;;;;;;;;;-4.08;69.35;100834.38;4994117;28;886;-67
2021/12/22 16:14:14;;;;;;;;;;;;;;;-4.16;70.13;100838.47;4993908;28;874;-67
2021/12/22 16:16:40;;;;;;;;;;;;;;;-4.19;69.21;100849.03;4993899;28;849;-68
2021/12/22 16:19:07;;;;;;;;;;;;;;;-4.14;68.49;100848.97;4993902;28;869;-68
2021/12/22 16:21:35;;;;;;;;;;;;;;;-4.12;68.12;100858.44;4994135;28;866;-68
2021/12/22 16:24:02;;;;;;;;;;;;;;;-4.08;67.75;100853.28;4993781;28;827;-68
2021/12/22 16:26:27;;;;;;;;;;;;;;;-4.04;66.66;100842.72;4993781;28;847;-67
2021/12/22 16:28:54;;;;;;;;;;;;;;;-3.99;66.89;100854.31;4993653;28;902;-67
2021/12/22 16:31:21;;;;;;;;;;;;;;;-3.94;66.86;100853.47;4993622;28;1953;-67
2021/12/22 16:33:48;;;;;;;;;;;;;;;-3.99;66.03;100858.88;4993630;28;909;-67
2021/12/22 16:36:14;;;;;;;;;;;;;;;-3.95;65.73;100858.09;4993554;28;804;-67
2021/12/22 16:38:41;;;;;;;;;;;;;;;-3.96;66.18;100861.84;4993394;28;844;-68
2021/12/22 16:41:08;;;;;;;;;;;;;;;-4.01;67.94;100864.59;4992924;28;827;-68
2021/12/22 16:43:35;;;;;;;;;;;;;;;-4.10;69.10;100866.25;4993620;28;835;-68
2021/12/22 16:46:02;;;;;;;;;;;;;;;-4.11;70.06;100870.03;4993466;28;946;-67
2021/12/22 16:48:28;;;;;;;;;;;;;;;-4.18;70.06;100869.53;4993176;28;1243;-67
2021/12/22 16:50:57;;;;;;;;;;;;;;;-4.06;68.83;100867.31;4993348;28;1910;-66
2021/12/22 16:53:25;;;;;;;;;;;;;;;-3.95;68.21;100865.34;4993230;28;924;-67
2021/12/22 16:55:52;;;;;;;;;;;;;;;-3.96;68.00;100863.75;4993111;28;878;-67
2021/12/22 16:58:20;;;;;;;;;;;;;;;-4.06;67.63;100864.59;4993203;28;819;-67
2021/12/22 17:00:48;;;;;;;;;;;;;;;-4.13;67.06;100864.91;4993384;28;941;-67
2021/12/22 17:03:15;;;;;;;;;;;;;;;-4.14;66.82;100863.31;4993302;28;807;-67
2021/12/22 17:05:45;;;;;;;;;;;;;;;-4.18;66.85;100862.25;4992999;28;850;-67
2021/12/22 17:08:11;;;;;;;;;;;;;;;-4.20;66.42;100856.31;4975928;28;1189;-67
2021/12/22 17:10:38;;;;;;;;;;;;;;;-4.25;66.64;100864.44;4992810;28;1894;-67
2021/12/22 17:13:06;;;;;;;;;;;;;;;-4.26;66.54;100862.03;4975761;28;1578;-68
2021/12/22 17:15:34;;;;;;;;;;;;;;;-4.22;66.32;100863.09;4992774;28;919;-68
2021/12/22 17:18:02;;;;;;;;;;;;;;;-4.29;67.84;100870.66;4992743;28;827;-67
2021/12/22 17:20:30;;;;;;;;;;;;;;;-4.36;67.48;100868.25;4992735;28;831;-67
2021/12/22 17:22:57;;;;;;;;;;;;;;;-4.37;66.21;100875.56;4992822;28;859;-67
2021/12/22 17:25:25;;;;;;;;;;;;;;;-4.26;66.72;100870.94;4992708;28;815;-67
2021/12/22 17:27:52;;;;;;;;;;;;;;;-4.26;65.66;100872.81;4992617;28;905;-67
2021/12/22 17:30:21;;;;;;;;;;;;;;;-4.30;65.66;100872.56;4992574;28;1945;-66
2021/12/22 17:32:49;;;;;;;;;;;;;;;-4.42;66.82;100874.75;4992482;28;827;-66
2021/12/22 17:35:17;;;;;;;;;;;;;;;-4.51;67.23;100867.22;4992612;28;827;-67
2021/12/22 17:37:43;;;;;;;;;;;;;;;-4.23;66.77;100872.25;4992332;28;823;-67
2021/12/22 17:40:12;;;;;;;;;;;;;;;-4.21;66.21;100876.28;4992422;28;859;-67
2021/12/22 17:42:39;;;;;;;;;;;;;;;-4.22;66.06;100879.28;4992390;28;1147;-66
2021/12/22 17:45:06;;;;;;;;;;;;;;;-4.19;66.60;100874.13;4974892;28;1359;-66
2021/12/22 17:47:34;;;;;;;;;;;;;;;-4.26;67.15;100878.22;4992790;28;934;-66
2021/12/22 17:50:00;;;;;;;;;;;;;;;-4.37;67.25;100872.84;4992068;28;1910;-66
2021/12/22 17:52:27;;;;;;;;;;;;;;;-4.43;67.07;100876.66;4992130;28;885;-67
2021/12/22 17:54:54;;;;;;;;;;;;;;;-4.39;66.23;100883.13;4992457;28;894;-66
2021/12/22 17:57:21;;;;;;;;;;;;;;;-4.49;67.16;100885.06;4974836;28;1313;-66
2021/12/22 17:59:48;;;;;;;;;;;;;;;-4.67;66.81;100879.19;4992315;28;831;-67
2021/12/22 18:02:15;;;;;;;;;;;;;;;-4.62;67.06;100884.53;4992075;28;824;-67
2021/12/22 18:04:42;;;;;;;;;;;;;;;-4.61;66.93;100888.03;4992117;28;815;-66
2021/12/22 18:07:10;;;;;;;;;;;;;;;-4.58;66.71;100884.81;4992220;28;811;-66
2021/12/22 18:09:37;;;;;;;;;;;;;;;-4.57;66.08;100881.03;4974609;28;1942;-67
2021/12/22 18:12:04;;;;;;;;;;;;;;;-4.57;65.43;100879.13;4992449;28;744;-66
2021/12/22 18:14:31;;;;;;;;;;;;;;;-4.61;64.31;100883.47;4991954;28;1121;-67
2021/12/22 18:16:57;;;;;;;;;;;;;;;-4.56;64.58;100888.03;4992021;28;787;-67
2021/12/22 18:19:24;;;;;;;;;;;;;;;-4.63;64.35;100885.63;4992044;28;866;-67
2021/12/22 18:21:51;;;;;;;;;;;;;;;-4.61;64.43;100888.03;4974719;28;831;-67
2021/12/22 18:24:18;;;;;;;;;;;;;;;-4.64;64.98;100886.72;4991930;28;787;-66
2021/12/22 18:26:45;;;;;;;;;;;;;;;-4.66;65.88;100888.06;4991954;28;882;-66
2021/12/22 18:29:14;;;;;;;;;;;;;;;-4.65;65.90;100893.19;4991931;28;838;-66
2021/12/22 18:31:41;;;;;;;;;;;;;;;-4.61;65.92;100891.56;4991947;28;1879;-68
2021/12/22 18:34:15;;;;;;;;;;;;;;;-4.41;65.09;100889.88;4992394;28;775;-67
2021/12/22 18:36:49;;;;;;;;;;;;;;;-4.36;64.69;100885.25;4991862;28;819;-67
2021/12/22 18:39:18;;;;;;;;;;;;;;;-4.42;64.74;100896.34;4991876;28;1013;-67
2021/12/22 18:41:44;;;;;;;;;;;;;;;-4.57;64.91;100886.41;4991767;28;1052;-67
2021/12/22 18:44:15;;;;;;;;;;;;;;;-4.63;64.99;100891.03;4991682;28;874;-67
2021/12/22 18:46:45;;;;;;;;;;;;;;;-4.72;65.92;100887.25;4991992;28;1033;-67
2021/12/22 18:49:18;;;;;;;;;;;;;;;-4.72;65.93;100882.66;4991713;28;1492;-68
2021/12/22 18:51:46;;;;;;;;;;;;;;;-4.64;66.20;100899.41;4991702;28;1977;-67
2021/12/22 18:54:12;;;;;;;;;;;;;;;-4.60;66.39;100897.78;4991596;28;1483;-67
2021/12/22 18:56:40;;;;;;;;;;;;;;;-4.67;65.19;100900.75;4991817;28;867;-67
2021/12/22 18:59:07;;;;;;;;;;;;;;;-4.69;66.15;100902.09;4974275;28;974;-67
2021/12/22 19:01:34;;;;;;;;;;;;;;;-4.67;66.53;100905.31;4992060;28;792;-67
2021/12/22 19:04:01;;;;;;;;;;;;;;;-4.68;67.23;100906.41;4977120;28;1162;-67
2021/12/22 19:06:28;;;;;;;;;;;;;;;-4.65;66.85;100912.09;4995334;28;866;-67
2021/12/22 19:08:55;;;;;;;;;;;;;;;-4.58;67.08;100909.09;4995099;28;871;-67
2021/12/22 19:11:23;;;;;;;;;;;;;;;-4.59;67.68;100915.56;4977872;28;1882;-67
2021/12/22 19:13:50;;;;;;;;;;;;;;;-4.65;68.09;100920.19;4995073;28;918;-67
2021/12/22 19:16:17;;;;;;;;;;;;;;;-4.78;67.97;100916.16;4995082;28;803;-67
2021/12/22 19:18:44;;;;;;;;;;;;;;;-4.93;68.65;100924.25;4977499;28;913;-67
2021/12/22 19:21:11;;;;;;;;;;;;;;;-5.06;68.82;100920.22;4994960;28;784;-67
2021/12/22 19:23:37;;;;;;;;;;;;;;;-5.20;69.84;100921.84;4995100;28;796;-67
2021/12/22 19:26:04;;;;;;;;;;;;;;;-5.23;69.76;100919.69;4994767;28;1032;-66
2021/12/22 19:28:31;;;;;;;;;;;;;;;-5.24;70.14;100913.47;4995139;28;820;-66
2021/12/22 19:30:58;;;;;;;;;;;;;;;-5.27;70.20;100914.03;4977207;28;1943;-66
2021/12/22 19:33:27;;;;;;;;;;;;;;;-5.32;70.92;100910.53;4977632;28;1542;-66
2021/12/22 19:35:55;;;;;;;;;;;;;;;-5.32;70.95;100911.31;4994660;28;819;-66
2021/12/22 19:38:21;;;;;;;;;;;;;;;-5.36;70.46;100912.94;4994640;28;819;-67
2021/12/22 19:40:49;;;;;;;;;;;;;;;-5.45;69.91;100911.84;4977108;28;1407;-67
2021/12/22 19:43:16;;;;;;;;;;;;;;;-5.51;69.48;100912.94;4994442;28;812;-67
2021/12/22 19:45:43;;;;;;;;;;;;;;;-5.41;68.87;100916.44;4994759;28;976;-67
2021/12/22 19:48:10;;;;;;;;;;;;;;;-5.27;67.58;100907.81;4994418;28;815;-66
2021/12/22 19:50:36;;;;;;;;;;;;;;;-5.25;66.73;100909.19;4994215;28;1887;-66
2021/12/22 19:53:04;;;;;;;;;;;;;;;-5.19;66.98;100904.59;4976873;28;1293;-66
2021/12/22 19:55:32;;;;;;;;;;;;;;;-4.99;66.21;100909.97;4994353;28;858;-66
2021/12/22 19:58:00;;;;;;;;;;;;;;;-4.80;66.18;100912.94;4994312;28;772;-66
2021/12/22 20:00:27;;;;;;;;;;;;;;;-4.76;65.91;100916.69;4977038;28;1114;-66
2021/12/22 20:02:54;;;;;;;;;;;;;;;-4.69;66.62;100920.97;4994168;28;783;-66
2021/12/22 20:05:24;;;;;;;;;;;;;;;-4.82;67.81;100911.56;4994144;28;882;-66
2021/12/22 20:07:51;;;;;;;;;;;;;;;-4.96;68.79;100914.81;4993962;28;831;-66
2021/12/22 20:10:21;;;;;;;;;;;;;;;-5.18;70.18;100909.72;4994021;28;1890;-66
2021/12/22 20:12:50;;;;;;;;;;;;;;;-5.38;70.35;100917.78;4993843;28;808;-66
2021/12/22 20:15:16;;;;;;;;;;;;;;;-5.56;70.04;100914.53;4993427;28;756;-66
2021/12/22 20:17:42;;;;;;;;;;;;;;;-5.68;70.23;100921.25;4993916;28;800;-66
2021/12/22 20:20:10;;;;;;;;;;;;;;;-5.86;70.25;100920.69;4993796;28;851;-66
2021/12/22 20:22:37;;;;;;;;;;;;;;;-6.04;71.62;100923.88;4993768;28;830;-68
2021/12/22 20:25:05;;;;;;;;;;;;;;;-6.17;72.09;100917.91;4993714;28;839;-65
2021/12/22 20:27:33;;;;;;;;;;;;;;;-6.28;72.83;100920.81;4994142;28;829;-66
2021/12/22 20:29:59;;;;;;;;;;;;;;;-6.20;72.91;100923.81;4976341;28;1890;-68
2021/12/22 20:32:28;;;;;;;;;;;;;;;-6.18;73.32;100923.56;4994361;28;823;-68
2021/12/22 20:34:55;;;;;;;;;;;;;;;-6.27;73.94;100922.44;4993722;28;831;-67
2021/12/22 20:37:22;;;;;;;;;;;;;;;-6.27;74.12;100925.97;4976183;28;1289;-66
2021/12/22 20:39:49;;;;;;;;;;;;;;;-6.24;73.72;100906.56;4993929;28;792;-65
2021/12/22 20:42:16;;;;;;;;;;;;;;;-6.29;73.93;100909.25;4976018;28;1320;-67
2021/12/22 20:44:44;;;;;;;;;;;;;;;-6.44;73.99;100920.75;4976098;28;1197;-67
2021/12/22 20:47:11;;;;;;;;;;;;;;;-6.41;75.00;100916.72;4993759;28;945;-67
2021/12/22 20:49:38;;;;;;;;;;;;;;;-6.22;74.48;100923.28;4993061;28;1902;-67
2021/12/22 20:52:05;;;;;;;;;;;;;;;-6.11;74.76;100926.00;4975843;28;914;-67
2021/12/22 20:54:32;;;;;;;;;;;;;;;-6.07;74.11;100925.22;4993198;28;840;-67
2021/12/22 20:56:58;;;;;;;;;;;;;;;-5.94;73.63;100921.19;4993217;28;897;-67
2021/12/22 20:59:25;;;;;;;;;;;;;;;-5.92;73.67;100929.00;4975922;28;883;-67
2021/12/22 21:01:52;;;;;;;;;;;;;;;-5.92;73.85;100923.63;4993424;28;894;-67
2021/12/22 21:04:18;;;;;;;;;;;;;;;-6.03;73.85;100922.81;4993230;28;863;-67
2021/12/22 21:06:47;;;;;;;;;;;;;;;-6.10;74.19;100924.91;4975796;28;1359;-67
2021/12/22 21:09:14;;;;;;;;;;;;;;;-6.14;74.79;100931.91;4992827;28;863;-66
2021/12/22 21:11:41;;;;;;;;;;;;;;;-6.11;74.73;100924.13;4992759;28;1882;-67
2021/12/22 21:14:11;;;;;;;;;;;;;;;-6.02;74.91;100921.72;4992937;28;799;-67
2021/12/22 21:16:39;;;;;;;;;;;;;;;-6.16;75.41;100924.91;4992820;28;839;-68
2021/12/22 21:19:07;;;;;;;;;;;;;;;-6.17;75.41;100925.97;4992857;28;827;-67
2021/12/22 21:21:36;;;;;;;;;;;;;;;-6.19;75.30;100930.00;4975324;28;1524;-66
2021/12/22 21:24:04;;;;;;;;;;;;;;;-6.21;75.47;100929.47;4992694;28;799;-68
2021/12/22 21:26:30;;;;;;;;;;;;;;;-6.16;75.40;100924.91;4992275;28;826;-67
2021/12/22 21:28:58;;;;;;;;;;;;;;;-6.19;75.80;100920.06;4992707;28;838;-68
2021/12/22 21:31:24;;;;;;;;;;;;;;;-6.11;75.27;100923.31;4992444;28;1890;-68
2021/12/22 21:33:51;;;;;;;;;;;;;;;-6.16;75.82;100929.50;4992553;28;878;-68
2021/12/22 21:36:18;;;;;;;;;;;;;;;-6.23;76.01;100926.22;4992539;28;870;-67
2021/12/22 21:38:43;;;;;;;;;;;;;;;-6.19;75.74;100928.16;4992594;28;823;-66
2021/12/22 21:41:10;;;;;;;;;;;;;;;-6.14;75.48;100930.03;4992669;28;819;-66
2021/12/22 21:43:37;;;;;;;;;;;;;;;-6.18;75.24;100924.38;4992327;28;815;-66
2021/12/22 21:46:06;;;;;;;;;;;;;;;-6.19;75.59;100930.00;4992483;28;903;-66
2021/12/22 21:48:33;;;;;;;;;;;;;;;-6.21;75.51;100930.28;4992136;28;1708;-66
2021/12/22 21:51:00;;;;;;;;;;;;;;;-6.21;75.33;100929.47;4992320;28;1938;-66
2021/12/22 21:53:28;;;;;;;;;;;;;;;-6.19;75.63;100930.00;4992262;28;1029;-66
2021/12/22 21:55:55;;;;;;;;;;;;;;;-6.17;75.37;100935.94;4992228;28;942;-66
2021/12/22 21:58:22;;;;;;;;;;;;;;;-6.23;75.92;100932.44;4992147;28;791;-66
2021/12/22 22:00:50;;;;;;;;;;;;;;;-6.15;74.48;100939.19;4992205;28;807;-66
2021/12/22 22:03:18;;;;;;;;;;;;;;;-6.09;74.45;100935.44;4974911;28;942;-66
2021/12/22 22:05:45;;;;;;;;;;;;;;;-6.06;74.33;100934.94;4992471;28;870;-67
2021/12/22 22:08:12;;;;;;;;;;;;;;;-6.12;74.07;100932.44;4992093;28;986;-67